Arrington, Illinois
Current Conditions -  °F | °C
As of 12:15 PM on Sunday 25 Jan 2015 (Local Time) from KFWC Reporting Station
Moderate Rain Moderate Rain  
Wind Chill: 39°   Ceiling: 700
Heat Index: 42°   Visibility: 5mi
Dew Point: 40°   Wind: 5mph
Humidity: 95%   Direction: 160°SSE
Pressure: 29.58"   Gusts: NA
Location:  38.4104°N, 88.5287°W
Report Text: KFWC 251815Z AUTO 16004KT 5SM RA OVC007 06/05 A2958 RMK AO1 T00550047
Loading
Personal Weather Stations






























Interactive Weather Map New forecast layout! Learn more

10-Day Weather Forecast

Advertisements
Track Severe Weather on mobile